Candia, New Hampshire
Current Conditions -  °F | °C
As of 4:53 PM on Tuesday 25 Nov 2014 (Local Time) from KMHT Reporting Station
Overcast Overcast  
Wind Chill: 54°   Ceiling: 25000
Heat Index: 54°   Visibility: 10mi
Dew Point: 23°   Wind: 8mph
Humidity: 30%   Direction: 280°W
Pressure: 29.92"   Gusts: NA
Location:  43.08°N, 71.28°W
Report Text: KMHT 252153Z 28007KT 10SM OVC250 12/M05 A2992 RMK AO2 SLP145 T01221050
Loading
Personal Weather Stations






























Interactive Weather Map New forecast layout! Learn more

10-Day Weather Forecast

Advertisements
Track Severe Weather on mobile